Time;durP1;ratioP1;P1;durP2;ratioP2;P2;SDS_P1;SDS_P2;PMS_P1;PMS_P2;Temp;Humidity;BMP_temperature;BMP_pressure;BME280_temperature;BME280_humidity;BME280_pressure;Samples;Min_cycle;Max_cycle;Signal;HPM_P1;HPM_P2
2022/07/29 00:01:18;;;;;;;4.20;1.48;;;;;;;23.31;40.11;101880.84;5009591;28;20033;-68
2022/07/29 00:03:43;;;;;;;4.35;1.10;;;;;;;23.17;40.89;101874.34;5011931;28;20090;-64
2022/07/29 00:06:08;;;;;;;10.77;1.45;;;;;;;22.90;41.03;101868.44;5012128;28;20038;-68
2022/07/29 00:08:34;;;;;;;4.30;1.45;;;;;;;23.11;41.24;101860.94;5012169;28;20125;-65
2022/07/29 00:10:59;;;;;;;6.30;1.40;;;;;;;23.08;41.36;101865.06;5012789;28;20041;-65
2022/07/29 00:13:25;;;;;;;2.75;0.95;;;;;;;23.15;40.98;101862.84;5012396;28;20046;-65
2022/07/29 00:15:50;;;;;;;7.57;1.20;;;;;;;23.18;40.77;101861.44;5012601;28;20076;-66
2022/07/29 00:18:15;;;;;;;3.17;1.48;;;;;;;23.23;40.67;101858.66;5010900;28;20091;-65
2022/07/29 00:20:41;;;;;;;5.88;1.65;;;;;;;23.26;40.22;101849.84;4997852;28;20038;-65
2022/07/29 00:23:06;;;;;;;2.35;1.48;;;;;;;23.12;40.56;101851.59;4993155;28;20046;-67
2022/07/29 00:25:32;;;;;;;6.65;1.70;;;;;;;23.04;41.52;101849.44;4993130;28;20033;-66
2022/07/29 00:27:57;;;;;;;6.28;1.50;;;;;;;23.08;40.45;101845.03;4992786;28;20057;-64
2022/07/29 00:30:22;;;;;;;2.72;1.08;;;;;;;22.39;42.40;101843.16;4992911;28;20402;-65
2022/07/29 00:32:48;;;;;;;3.97;1.50;;;;;;;22.99;40.91;101844.00;4992937;28;20042;-65
2022/07/29 00:37:57;;;;;;;2.38;0.88;;;;;;;22.70;41.48;101835.69;4992796;28;20568;-65
2022/07/29 00:40:23;;;;;;;3.42;1.40;;;;;;;22.73;41.17;101831.53;4993208;28;20034;-64
2022/07/29 00:42:50;;;;;;;4.03;1.95;;;;;;;22.82;41.38;101830.66;4992590;28;20030;-67
2022/07/29 00:45:17;;;;;;;3.28;1.20;;;;;;;22.83;41.41;101834.22;4992224;28;20046;-64
2022/07/29 00:47:43;;;;;;;4.35;1.17;;;;;;;22.54;41.41;101825.84;4992244;28;20034;-65
2022/07/29 00:50:11;;;;;;;4.28;1.20;;;;;;;22.62;41.51;101833.53;4992573;28;20398;-65
2022/07/29 00:52:39;;;;;;;2.38;1.20;;;;;;;22.99;40.26;101831.13;4992834;28;20085;-66
2022/07/29 00:55:08;;;;;;;2.47;1.20;;;;;;;22.76;41.43;101826.31;4992113;28;20039;-65
2022/07/29 00:57:34;;;;;;;3.88;1.20;;;;;;;22.83;41.03;101815.03;4990631;28;20042;-65
2022/07/29 01:00:03;;;;;;;2.95;1.30;;;;;;;23.15;39.60;101820.88;4992276;28;20034;-65
2022/07/29 01:02:28;;;;;;;3.45;1.20;;;;;;;22.60;41.39;101816.53;4973857;28;20062;-66
2022/07/29 01:04:55;;;;;;;3.28;1.25;;;;;;;23.01;40.57;101811.63;4972424;28;20471;-65
2022/07/29 01:07:20;;;;;;;10.30;1.38;;;;;;;23.11;39.90;101817.06;4973883;28;20023;-65
2022/07/29 01:09:46;;;;;;;4.43;1.30;;;;;;;22.77;40.49;101806.03;4972635;28;20050;-66
2022/07/29 01:12:18;;;;;;;4.68;1.55;;;;;;;22.88;40.04;101810.34;4972322;28;20059;-64
2022/07/29 01:14:45;;;;;;;1.77;1.25;;;;;;;22.89;40.12;101809.25;4971378;28;20050;-64
2022/07/29 01:17:13;;;;;;;2.65;1.42;;;;;;;22.66;40.73;101798.97;4972702;28;20166;-66
2022/07/29 01:20:01;;;;;;;2.97;1.30;;;;;;;22.90;40.61;101797.16;4978621;28;20060;-66
2022/07/29 01:22:36;;;;;;;1.83;1.33;;;;;;;22.76;40.25;101789.88;4991890;28;20725;-67
2022/07/29 01:25:19;;;;;;;4.95;1.42;;;;;;;22.91;39.79;101787.03;4991675;28;20038;-65
2022/07/29 01:28:00;;;;;;;2.83;1.00;;;;;;;23.15;39.47;101787.97;4991639;28;20057;-66
2022/07/29 01:30:27;;;;;;;2.88;1.10;;;;;;;22.87;40.05;101794.19;5005378;28;20046;-65
2022/07/29 01:32:58;;;;;;;2.72;1.50;;;;;;;23.16;39.48;101789.59;5011116;28;20038;-65
2022/07/29 01:35:26;;;;;;;;;;;;;;;23.19;38.91;101786.28;5011889;28;20108;-64
2022/07/29 01:38:09;;;;;;;5.65;1.15;;;;;;;23.35;38.97;101791.38;5011601;28;19960;-65
2022/07/29 01:40:57;;;;;;;2.42;0.98;;;;;;;22.91;39.81;101773.31;5011495;28;20148;-64
2022/07/29 01:43:43;;;;;;;2.50;1.35;;;;;;;23.04;39.23;101776.25;4995483;28;20589;-64
2022/07/29 01:46:13;;;;;;;5.65;1.70;;;;;;;23.14;38.81;101778.09;4991360;28;20541;-66
2022/07/29 01:48:48;;;;;;;3.47;1.70;;;;;;;23.01;39.65;101770.50;4991423;28;20038;-66
2022/07/29 01:51:20;;;;;;;2.25;1.38;;;;;;;22.72;40.06;101777.84;4991426;28;20058;-66
2022/07/29 01:54:06;;;;;;;6.97;1.50;;;;;;;23.10;39.50;101764.13;4991213;28;20042;-64
2022/07/29 01:56:34;;;;;;;7.65;1.23;;;;;;;22.99;39.74;101764.50;4991219;28;20485;-66
2022/07/29 01:59:02;;;;;;;3.50;1.83;;;;;;;22.77;39.92;101764.09;4991003;28;20027;-66
2022/07/29 02:01:30;;;;;;;4.25;1.63;;;;;;;22.83;39.32;101761.03;4991568;28;20042;-66
2022/07/29 02:03:58;;;;;;;4.15;2.03;;;;;;;23.02;39.25;101758.44;4991317;28;20694;-65
2022/07/29 02:06:25;;;;;;;2.22;1.35;;;;;;;23.14;39.47;101758.88;4991238;28;20089;-65
2022/07/29 02:08:52;;;;;;;3.10;1.25;;;;;;;22.88;39.52;101760.19;4991386;28;20049;-64
2022/07/29 02:11:18;;;;;;;3.38;1.30;;;;;;;22.64;39.83;101755.41;4991326;28;20189;-68
2022/07/29 02:13:45;;;;;;;2.70;1.30;;;;;;;23.07;38.92;101753.75;4990778;28;20494;-68
2022/07/29 02:16:12;;;;;;;2.85;1.27;;;;;;;23.11;39.19;101757.56;4991091;28;20487;-67
2022/07/29 02:18:40;;;;;;;4.15;1.65;;;;;;;23.05;39.67;101766.94;4990885;28;20051;-65
2022/07/29 02:21:07;;;;;;;3.10;1.50;;;;;;;23.24;39.06;101761.56;4990628;28;20038;-64
2022/07/29 02:23:35;;;;;;;7.80;1.77;;;;;;;22.98;39.76;101765.59;4990631;28;20046;-65
2022/07/29 02:26:01;;;;;;;3.40;1.48;;;;;;;23.12;39.49;101772.91;4990589;28;20027;-65
2022/07/29 02:28:29;;;;;;;2.63;1.15;;;;;;;23.05;39.61;101760.63;4990851;28;20598;-66
2022/07/29 02:30:59;;;;;;;2.80;1.33;;;;;;;22.99;39.50;101757.09;4990459;28;20438;-64
2022/07/29 02:33:25;;;;;;;2.55;1.40;;;;;;;23.23;39.20;101759.94;4990611;28;20120;-64
2022/07/29 02:35:52;;;;;;;1.98;1.70;;;;;;;23.10;39.36;101763.31;4990918;28;20053;-65
2022/07/29 02:41:08;;;;;;;2.95;1.15;;;;;;;22.74;39.48;101754.53;4990926;28;20540;-65
2022/07/29 02:43:35;;;;;;;4.55;1.45;;;;;;;22.79;40.11;101748.19;4990971;28;20083;-65
2022/07/29 02:46:04;;;;;;;3.85;1.48;;;;;;;22.45;40.79;101745.34;4990300;28;20046;-64
2022/07/29 02:48:37;;;;;;;3.90;1.52;;;;;;;22.69;40.13;101741.69;4990188;28;20038;-65
2022/07/29 02:51:10;;;;;;;3.25;1.38;;;;;;;22.98;39.93;101749.13;4990201;28;20046;-64
2022/07/29 02:53:38;;;;;;;3.10;0.90;;;;;;;23.04;39.79;101751.56;4988732;28;20034;-65
2022/07/29 02:56:12;;;;;;;4.60;1.48;;;;;;;22.65;40.30;101751.56;4990107;28;20593;-65
2022/07/29 02:58:44;;;;;;;2.80;1.52;;;;;;;22.65;40.89;101751.56;4990449;28;20050;-64
2022/07/29 03:01:16;;;;;;;3.65;1.38;;;;;;;22.05;41.98;101753.75;4990116;28;20030;-64
2022/07/29 03:03:46;;;;;;;4.10;1.33;;;;;;;22.43;41.18;101753.84;4989969;28;20078;-64
2022/07/29 03:06:14;;;;;;;3.70;1.40;;;;;;;22.86;39.73;101752.25;4990194;28;20031;-65
2022/07/29 03:08:40;;;;;;;7.85;1.70;;;;;;;22.78;40.54;101761.06;4990070;28;20056;-66
2022/07/29 03:11:08;;;;;;;5.95;1.80;;;;;;;22.87;40.10;101762.13;4989933;28;20048;-65
2022/07/29 03:13:35;;;;;;;4.88;1.48;;;;;;;22.92;39.63;101756.59;4988623;28;20046;-64
2022/07/29 03:16:02;;;;;;;1.98;1.33;;;;;;;22.80;39.96;101756.13;4989631;28;20038;-65
2022/07/29 03:18:28;;;;;;;3.50;1.60;;;;;;;22.72;40.41;101748.53;4989540;28;20053;-66
2022/07/29 03:20:54;;;;;;;2.97;1.50;;;;;;;22.77;40.24;101744.91;4989484;28;20043;-66
2022/07/29 03:23:22;;;;;;;5.35;1.88;;;;;;;22.58;40.94;101751.03;4990498;28;20057;-65
2022/07/29 03:25:48;;;;;;;4.60;1.50;;;;;;;22.26;41.43;101747.91;4990125;28;20022;-66
2022/07/29 03:28:14;;;;;;;3.88;1.40;;;;;;;22.69;40.55;101760.03;4990601;28;20046;-65
2022/07/29 03:30:39;;;;;;;3.72;1.58;;;;;;;22.54;41.46;101758.16;5005419;28;20041;-65
2022/07/29 03:33:05;;;;;;;6.20;1.60;;;;;;;22.68;41.01;101750.19;5009401;28;20042;-65
2022/07/29 03:35:31;;;;;;;5.15;1.60;;;;;;;22.30;41.81;101754.47;4996157;28;20084;-64
2022/07/29 03:37:57;;;;;;;3.45;1.30;;;;;;;22.64;41.26;101751.84;4989228;28;20031;-65
2022/07/29 03:40:31;;;;;;;2.00;1.33;;;;;;;22.63;41.09;101756.50;4990456;28;20037;-65
2022/07/29 03:43:00;;;;;;;4.88;1.35;;;;;;;22.31;41.72;101744.34;4989516;28;20069;-65
2022/07/29 03:45:27;;;;;;;5.93;2.10;;;;;;;22.08;42.43;101747.69;4989560;28;20042;-65
2022/07/29 03:47:56;;;;;;;3.47;1.60;;;;;;;22.31;42.38;101739.66;4989753;28;20034;-65
2022/07/29 03:50:22;;;;;;;3.03;1.50;;;;;;;22.39;41.96;101746.47;4989926;28;20026;-65
2022/07/29 03:52:48;;;;;;;5.80;1.70;;;;;;;21.99;42.86;101746.66;4989531;28;20453;-63
2022/07/29 03:55:15;;;;;;;4.70;1.73;;;;;;;22.19;42.59;101741.91;4989486;28;20042;-66
2022/07/29 03:57:41;;;;;;;6.63;2.10;;;;;;;22.02;42.97;101741.44;4989033;28;20034;-65
2022/07/29 04:00:08;;;;;;;6.20;1.80;;;;;;;21.88;43.08;101745.06;4988906;28;20165;-65
2022/07/29 04:02:34;;;;;;;2.30;1.70;;;;;;;22.03;42.71;101750.47;4987170;28;20038;-65
2022/07/29 04:04:59;;;;;;;5.10;1.52;;;;;;;22.24;42.22;101750.09;4989072;28;20620;-64
2022/07/29 04:07:25;;;;;;;3.15;1.60;;;;;;;21.94;42.84;101747.47;4989865;28;20023;-64
2022/07/29 04:09:51;;;;;;;3.17;1.52;;;;;;;22.18;42.80;101744.94;4984874;28;20364;-64
2022/07/29 04:12:16;;;;;;;5.45;2.03;;;;;;;22.15;42.70;101750.97;4980238;28;20054;-66
2022/07/29 04:14:42;;;;;;;3.60;1.90;;;;;;;22.19;42.34;101747.38;4988860;28;20049;-63
2022/07/29 04:17:07;;;;;;;3.45;1.80;;;;;;;22.14;42.90;101752.06;5008278;28;20034;-66
2022/07/29 04:19:33;;;;;;;5.28;1.85;;;;;;;22.01;43.15;101752.66;5003000;28;20022;-65
2022/07/29 04:21:59;;;;;;;2.55;1.50;;;;;;;22.14;43.03;101755.63;4988109;28;20065;-66
2022/07/29 04:24:25;;;;;;;2.95;1.55;;;;;;;22.19;42.78;101754.78;4988467;28;20105;-64
2022/07/29 04:26:50;;;;;;;5.30;1.77;;;;;;;22.22;42.45;101749.56;4988572;28;20027;-66
2022/07/29 04:29:16;;;;;;;5.90;2.03;;;;;;;21.87;43.69;101754.34;4988023;28;20027;-66
2022/07/29 04:31:42;;;;;;;4.03;1.42;;;;;;;21.96;43.65;101753.50;4988261;28;20056;-64
2022/07/29 04:34:08;;;;;;;5.07;1.77;;;;;;;21.73;43.53;101751.34;4987553;28;20038;-64
2022/07/29 04:36:34;;;;;;;2.58;1.45;;;;;;;21.59;44.54;101745.63;4989039;28;20039;-64
2022/07/29 04:39:00;;;;;;;3.97;1.90;;;;;;;21.91;43.38;101741.75;4989463;28;20089;-65
2022/07/29 04:41:27;;;;;;;5.18;1.98;;;;;;;21.77;44.05;101742.31;4989822;28;20061;-67
2022/07/29 04:43:52;;;;;;;4.65;1.90;;;;;;;21.84;44.02;101751.06;4989788;28;20057;-64
2022/07/29 04:46:18;;;;;;;6.03;1.95;;;;;;;22.02;43.71;101760.59;4990491;28;20035;-65
2022/07/29 04:48:46;;;;;;;5.57;1.88;;;;;;;22.15;43.44;101764.66;4989431;28;20510;-65
2022/07/29 04:51:11;;;;;;;1.95;1.42;;;;;;;22.18;43.05;101764.91;4991143;28;20034;-64
2022/07/29 04:53:36;;;;;;;5.18;2.10;;;;;;;22.28;43.00;101761.31;4993068;28;20031;-65
2022/07/29 04:56:03;;;;;;;5.30;1.90;;;;;;;22.15;43.67;101762.72;4992752;28;20455;-66
2022/07/29 04:58:28;;;;;;;5.25;1.63;;;;;;;22.16;43.33;101755.34;4992964;28;20046;-65
2022/07/29 05:00:54;;;;;;;3.35;1.90;;;;;;;22.21;42.95;101761.59;4992255;28;20552;-66
2022/07/29 05:03:19;;;;;;;3.67;1.63;;;;;;;22.29;43.27;101755.53;4992593;28;20034;-66
2022/07/29 05:05:45;;;;;;;6.50;1.85;;;;;;;22.55;42.49;101753.50;4990334;28;20039;-64
2022/07/29 05:08:10;;;;;;;3.10;1.77;;;;;;;22.23;43.04;101756.66;4992163;28;20395;-64
2022/07/29 05:10:37;;;;;;;7.25;1.90;;;;;;;22.15;43.83;101749.03;4992514;28;20092;-65
2022/07/29 05:13:07;;;;;;;7.13;1.88;;;;;;;22.41;42.46;101747.00;4991691;28;20108;-64
2022/07/29 05:15:36;;;;;;;3.03;1.60;;;;;;;22.26;42.98;101747.91;4991822;28;20031;-66
2022/07/29 05:18:03;;;;;;;7.43;1.60;;;;;;;22.15;43.94;101754.50;4991888;28;20812;-65
2022/07/29 05:20:29;;;;;;;6.88;2.25;;;;;;;22.21;43.80;101749.84;4991822;28;20026;-64
2022/07/29 05:22:58;;;;;;;4.50;1.83;;;;;;;22.30;43.46;101757.19;4991978;28;20035;-65
2022/07/29 05:25:25;;;;;;;7.80;1.93;;;;;;;22.42;42.98;101754.97;4992107;28;20034;-65
2022/07/29 05:27:50;;;;;;;7.85;2.25;;;;;;;22.19;43.58;101758.31;4991616;28;20054;-64
2022/07/29 05:30:16;;;;;;;5.82;1.73;;;;;;;22.42;42.91;101751.38;4991478;28;20054;-65
2022/07/29 05:32:41;;;;;;;7.55;2.30;;;;;;;22.31;43.43;101750.59;4991525;28;20030;-63
2022/07/29 05:35:07;;;;;;;2.60;1.42;;;;;;;21.98;43.86;101751.28;4991360;28;20482;-64
2022/07/29 05:37:33;;;;;;;4.60;1.80;;;;;;;22.36;43.06;101747.88;4992005;28;20119;-64
2022/07/29 05:39:58;;;;;;;5.65;2.05;;;;;;;22.21;43.67;101747.91;4990230;28;20452;-64
2022/07/29 05:42:25;;;;;;;4.95;2.22;;;;;;;21.73;45.23;101746.69;4991209;28;20116;-64
2022/07/29 05:44:50;;;;;;;3.95;2.13;;;;;;;21.45;45.92;101749.19;4991617;28;20027;-64
2022/07/29 05:47:16;;;;;;;5.63;1.67;;;;;;;21.68;45.62;101746.69;4991275;28;20379;-64
2022/07/29 05:49:41;;;;;;;3.22;1.67;;;;;;;22.00;46.27;101751.84;4991959;28;20030;-66
2022/07/29 05:52:07;;;;;;;8.68;2.50;;;;;;;21.95;45.66;101749.13;4991460;28;20043;-66
2022/07/29 05:54:32;;;;;;;3.40;1.58;;;;;;;21.91;46.65;101756.25;4991005;28;20406;-65
2022/07/29 05:56:57;;;;;;;5.55;1.90;;;;;;;21.78;47.51;101756.78;4991323;28;20034;-67
2022/07/29 05:59:23;;;;;;;3.97;1.85;;;;;;;21.78;47.34;101757.63;4990705;28;20035;-66
2022/07/29 06:01:48;;;;;;;4.55;1.90;;;;;;;21.92;47.33;101755.13;4991209;28;20410;-66
2022/07/29 06:04:13;;;;;;;4.25;1.85;;;;;;;21.61;47.56;101742.59;4991745;28;20042;-64
2022/07/29 06:06:39;;;;;;;8.48;2.03;;;;;;;21.70;47.74;101746.41;4991065;28;20050;-67
2022/07/29 06:09:04;;;;;;;8.43;3.05;;;;;;;21.72;47.75;101739.56;4990901;28;20027;-65
2022/07/29 06:11:30;;;;;;;5.65;2.38;;;;;;;21.35;49.20;101747.28;4990557;28;20034;-64
2022/07/29 06:13:55;;;;;;;10.05;3.05;;;;;;;21.79;48.18;101747.50;4991030;28;20030;-66
2022/07/29 06:16:20;;;;;;;9.05;2.42;;;;;;;22.02;47.71;101754.28;4990569;28;20441;-66
2022/07/29 06:18:46;;;;;;;4.53;2.22;;;;;;;22.00;48.37;101760.03;4990420;28;20046;-66
2022/07/29 06:21:11;;;;;;;6.47;2.28;;;;;;;22.03;48.48;101766.88;4990711;28;20501;-66
2022/07/29 06:23:37;;;;;;;3.38;1.92;;;;;;;22.27;48.58;101770.66;4998048;28;20037;-67
2022/07/29 06:26:03;;;;;;;5.18;2.00;;;;;;;22.55;47.39;101779.00;5010094;28;20089;-66
2022/07/29 06:28:28;;;;;;;5.35;1.98;;;;;;;22.46;47.21;101783.44;5009028;28;20509;-67
2022/07/29 06:30:54;;;;;;;4.38;2.05;;;;;;;22.38;48.19;101791.41;5009745;28;20058;-66
2022/07/29 06:33:19;;;;;;;5.65;2.25;;;;;;;22.33;48.56;101788.66;5009946;28;20034;-66
2022/07/29 06:35:46;;;;;;;7.82;2.33;;;;;;;22.21;47.61;101789.00;4993964;28;20503;-71
2022/07/29 06:38:13;;;;;;;10.60;2.40;;;;;;;22.39;48.48;101793.03;4993130;28;20417;-69
2022/07/29 06:40:59;;;;;;;8.40;2.67;;;;;;;22.35;48.09;101795.50;4993728;28;20057;-68
2022/07/29 06:43:33;;;;;;;3.90;2.30;;;;;;;22.53;48.19;101794.06;4991681;28;20050;-69
2022/07/29 06:46:04;;;;;;;4.10;2.45;;;;;;;22.52;48.63;101795.19;4991511;28;20058;-69
2022/07/29 06:48:30;;;;;;;3.97;2.28;;;;;;;22.67;47.04;101803.34;4991682;28;20045;-69
2022/07/29 06:50:55;;;;;;;9.57;3.30;;;;;;;22.57;47.36;101793.25;4991689;28;20494;-69
2022/07/29 06:53:21;;;;;;;6.63;2.70;;;;;;;22.58;47.10;101811.31;4992114;28;20030;-68
2022/07/29 06:55:46;;;;;;;4.35;2.70;;;;;;;22.79;47.15;101803.00;4991712;28;20038;-68
2022/07/29 06:58:13;;;;;;;3.83;2.60;;;;;;;22.70;47.28;101789.88;4992181;28;20038;-69
2022/07/29 07:00:39;;;;;;;4.78;2.35;;;;;;;22.70;47.24;101792.63;4985978;28;20487;-69
2022/07/29 07:03:04;;;;;;;4.15;2.50;;;;;;;22.57;47.63;101792.44;4988169;28;20154;-70
2022/07/29 07:05:30;;;;;;;6.10;2.58;;;;;;;22.55;46.90;101789.94;5006334;28;20092;-69
2022/07/29 07:07:55;;;;;;;3.15;2.50;;;;;;;22.85;46.60;101797.22;4991693;28;20038;-69
2022/07/29 07:10:20;;;;;;;7.10;2.47;;;;;;;23.09;46.25;101794.59;5007303;28;20544;-69
2022/07/29 07:12:46;;;;;;;3.35;2.38;;;;;;;23.11;46.28;101793.22;5009643;28;20049;-67
2022/07/29 07:15:11;;;;;;;4.28;2.53;;;;;;;23.02;46.23;101808.59;5008190;28;20440;-68
2022/07/29 07:17:37;;;;;;;3.92;2.05;;;;;;;23.13;45.61;101818.44;4991236;28;20034;-69
2022/07/29 07:20:04;;;;;;;8.43;2.78;;;;;;;23.22;45.20;101824.09;4990874;28;20037;-69
2022/07/29 07:22:30;;;;;;;3.78;2.72;;;;;;;22.91;46.16;101811.69;4991596;28;20105;-67
2022/07/29 07:24:55;;;;;;;3.78;2.30;;;;;;;23.11;45.43;101806.09;4990470;28;20540;-68
2022/07/29 07:27:20;;;;;;;6.05;2.50;;;;;;;23.20;45.25;101805.19;4991302;28;20042;-69
2022/07/29 07:29:46;;;;;;;4.50;2.50;;;;;;;23.18;45.05;101804.66;4990597;28;20488;-68
2022/07/29 07:32:13;;;;;;;6.35;2.50;;;;;;;23.49;45.12;101808.81;4990357;28;20038;-68
2022/07/29 07:34:38;;;;;;;6.43;2.33;;;;;;;23.77;44.20;101806.38;4988886;28;20022;-68
2022/07/29 07:37:04;;;;;;;4.57;2.40;;;;;;;23.33;44.79;101798.28;4989643;28;20046;-68
2022/07/29 07:39:29;;;;;;;4.47;2.30;;;;;;;24.02;44.10;101801.47;4983179;28;20496;-67
2022/07/29 07:41:55;;;;;;;9.40;2.47;;;;;;;23.85;43.23;101790.09;4981404;28;20035;-67
2022/07/29 07:44:20;;;;;;;6.85;2.13;;;;;;;23.49;44.43;101791.53;4983743;28;20037;-68
2022/07/29 07:46:46;;;;;;;4.95;2.22;;;;;;;23.88;43.66;101795.00;4976768;28;20472;-68
2022/07/29 07:49:11;;;;;;;5.88;2.55;;;;;;;23.68;43.00;101797.97;4990509;28;20360;-69
2022/07/29 07:51:36;;;;;;;5.00;2.45;;;;;;;24.19;42.07;101795.53;5002875;28;20038;-69
2022/07/29 07:54:02;;;;;;;3.60;2.05;;;;;;;23.78;43.12;101789.63;5003537;28;20065;-69
2022/07/29 07:56:27;;;;;;;6.28;2.28;;;;;;;24.06;42.38;101788.78;4988719;28;20046;-70
2022/07/29 07:58:53;;;;;;;7.30;2.58;;;;;;;23.21;44.34;101784.88;4991793;28;20415;-70
2022/07/29 08:01:20;;;;;;;6.88;2.58;;;;;;;22.46;45.64;101785.34;5005180;28;20121;-69
2022/07/29 08:03:46;;;;;;;7.05;2.70;;;;;;;22.88;45.17;101771.97;5005952;28;20145;-68
2022/07/29 08:06:11;;;;;;;5.95;2.47;;;;;;;23.52;43.65;101769.03;5008049;28;20049;-69
2022/07/29 08:08:37;;;;;;;6.18;2.78;;;;;;;23.71;42.97;101775.41;5005941;28;20170;-69
2022/07/29 08:11:03;;;;;;;6.35;2.85;;;;;;;23.91;43.12;101766.97;5003670;28;20140;-68
2022/07/29 08:13:29;;;;;;;6.75;2.83;;;;;;;24.07;42.43;101768.47;5007859;28;20522;-67
2022/07/29 08:16:10;;;;;;;4.93;2.33;;;;;;;24.28;42.45;101767.09;5003086;28;20034;-69
2022/07/29 08:18:36;;;;;;;6.00;3.45;;;;;;;24.46;41.47;101762.75;5007231;28;20136;-69
2022/07/29 08:21:01;;;;;;;6.07;2.42;;;;;;;24.40;41.43;101773.00;5003580;28;20121;-68
2022/07/29 08:23:34;;;;;;;5.15;2.38;;;;;;;24.68;41.03;101765.75;5008691;28;20398;-69
2022/07/29 08:26:00;;;;;;;6.28;2.92;;;;;;;24.58;41.20;101760.41;5006480;28;20502;-68
2022/07/29 08:28:26;;;;;;;9.82;2.75;;;;;;;24.75;40.75;101759.91;5012076;28;20091;-69
2022/07/29 08:30:51;;;;;;;6.25;2.95;;;;;;;24.17;41.69;101765.59;5007932;28;20545;-68
2022/07/29 08:33:17;;;;;;;4.25;2.03;;;;;;;24.48;41.55;101762.44;4995639;28;20046;-68
2022/07/29 08:35:43;;;;;;;5.05;2.78;;;;;;;24.74;41.23;101755.53;5010299;28;20049;-68
2022/07/29 08:38:08;;;;;;;6.07;2.55;;;;;;;24.58;41.29;101751.31;5010849;28;20037;-68
2022/07/29 08:40:34;;;;;;;4.50;2.15;;;;;;;24.48;42.12;101749.53;5011048;28;20029;-67
2022/07/29 08:43:05;;;;;;;3.78;2.35;;;;;;;24.64;41.59;101761.97;5010961;28;20304;-68
2022/07/29 08:45:45;;;;;;;6.38;2.45;;;;;;;25.15;40.52;101757.34;5008481;28;20034;-69
2022/07/29 08:48:15;;;;;;;3.83;2.67;;;;;;;24.16;42.02;101766.69;4991729;28;20498;-68
2022/07/29 08:50:42;;;;;;;8.90;2.63;;;;;;;24.51;41.66;101768.16;5002710;28;20112;-69
2022/07/29 08:53:11;;;;;;;11.48;2.90;;;;;;;24.58;41.48;101767.81;5010913;28;20088;-69
2022/07/29 08:55:40;;;;;;;7.80;2.63;;;;;;;24.89;41.08;101769.03;4984560;28;20487;-69
2022/07/29 08:58:06;;;;;;;7.78;2.63;;;;;;;25.37;40.24;101770.47;4987362;28;20046;-69
2022/07/29 09:00:32;;;;;;;3.53;2.10;;;;;;;25.38;40.15;101771.25;5008121;28;20092;-69
2022/07/29 09:02:59;;;;;;;13.95;2.83;;;;;;;25.13;40.66;101758.75;5006806;28;20037;-70
2022/07/29 09:05:26;;;;;;;19.83;3.65;;;;;;;24.16;42.39;101772.19;5003741;28;20117;-69
2022/07/29 09:07:51;;;;;;;5.10;2.30;;;;;;;25.24;40.79;101776.72;4990518;28;20034;-69
2022/07/29 09:10:17;;;;;;;7.22;2.50;;;;;;;25.43;40.56;101776.72;4990829;28;20038;-68
2022/07/29 09:12:43;;;;;;;7.15;2.33;;;;;;;25.43;40.58;101771.22;4990198;28;20221;-69
2022/07/29 09:15:08;;;;;;;6.53;2.40;;;;;;;25.50;40.60;101764.19;4990686;28;20031;-69
2022/07/29 09:17:42;;;;;;;3.88;2.72;;;;;;;24.89;40.82;101777.28;4990328;28;20070;-69
2022/07/29 09:20:13;;;;;;;7.22;2.95;;;;;;;25.43;40.01;101777.56;4990306;28;20239;-70
2022/07/29 09:22:38;;;;;;;6.00;2.22;;;;;;;25.54;39.65;101778.19;4994508;28;20037;-69
2022/07/29 09:25:04;;;;;;;5.05;2.65;;;;;;;25.93;39.02;101775.78;5009419;28;20429;-68
2022/07/29 09:27:29;;;;;;;6.35;2.55;;;;;;;26.27;38.45;101778.16;5009992;28;20034;-68
2022/07/29 09:30:05;;;;;;;7.05;2.67;;;;;;;25.60;39.59;101791.56;5010213;28;20038;-69
2022/07/29 09:32:31;;;;;;;7.95;3.25;;;;;;;25.16;40.65;101788.41;5010039;28;20026;-70
2022/07/29 09:35:16;;;;;;;7.25;3.15;;;;;;;25.58;40.00;101787.47;4996666;28;20090;-68
2022/07/29 09:37:43;;;;;;;4.57;2.50;;;;;;;26.23;38.96;101799.19;4999137;28;20121;-68
2022/07/29 09:40:22;;;;;;;4.65;2.78;;;;;;;26.65;37.72;101791.38;5005951;28;20568;-68
2022/07/29 09:42:48;;;;;;;6.82;2.60;;;;;;;26.33;38.06;101787.97;5009430;28;20441;-70
2022/07/29 09:45:30;;;;;;;6.18;2.22;;;;;;;26.75;37.81;101788.44;5009595;28;20030;-68
2022/07/29 09:47:58;;;;;;;6.40;2.22;;;;;;;27.13;37.42;101796.38;5009235;28;20176;-69
2022/07/29 09:50:41;;;;;;;5.53;2.72;;;;;;;27.27;36.38;101797.97;5010566;28;20095;-69
2022/07/29 09:53:06;;;;;;;6.50;2.78;;;;;;;27.21;37.07;101795.63;5012494;28;20135;-69
2022/07/29 09:55:32;;;;;;;5.25;2.45;;;;;;;27.57;36.44;101800.00;5010629;28;20022;-69
2022/07/29 09:58:16;;;;;;;14.52;2.42;;;;;;;27.27;36.00;101794.38;5009785;28;20037;-66
2022/07/29 10:00:43;;;;;;;6.07;2.58;;;;;;;27.12;37.02;101789.25;5009080;28;20038;-66
2022/07/29 10:03:08;;;;;;;4.93;2.50;;;;;;;26.04;38.63;101789.06;5009428;28;20045;-65
2022/07/29 10:05:34;;;;;;;10.60;2.95;;;;;;;26.44;38.40;101803.16;5009299;28;20034;-65
2022/07/29 10:07:59;;;;;;;6.13;2.53;;;;;;;26.28;38.42;101791.63;5005523;28;20034;-65
2022/07/29 10:10:33;;;;;;;4.32;2.53;;;;;;;26.93;37.12;101789.41;5009282;28;20470;-66
2022/07/29 10:13:03;;;;;;;5.78;2.40;;;;;;;27.17;36.61;101789.94;5008369;28;20580;-65
2022/07/29 10:15:31;;;;;;;5.72;2.45;;;;;;;27.01;37.44;101791.41;5002202;28;20030;-66
2022/07/29 10:17:58;;;;;;;5.82;2.67;;;;;;;26.78;37.40;101798.03;5008938;28;20041;-65
2022/07/29 10:20:25;;;;;;;8.63;3.03;;;;;;;27.11;36.67;101795.88;5007429;28;20524;-65
2022/07/29 10:22:52;;;;;;;5.93;2.65;;;;;;;27.28;36.81;101796.81;5009104;28;20556;-65
2022/07/29 10:25:19;;;;;;;5.90;2.53;;;;;;;27.59;36.06;101796.91;5009478;28;20205;-65
2022/07/29 10:27:46;;;;;;;5.07;2.42;;;;;;;27.77;35.71;101795.88;5008659;28;20045;-66
2022/07/29 10:30:13;;;;;;;10.13;2.80;;;;;;;27.83;35.32;101794.63;5008870;28;20389;-66
2022/07/29 10:33:01;;;;;;;8.80;2.58;;;;;;;27.92;35.50;101797.41;5008667;28;20048;-65
2022/07/29 10:35:33;;;;;;;2.78;2.33;;;;;;;27.38;36.22;101798.56;5008341;28;20057;-66
2022/07/29 10:38:32;;;;;;;3.22;2.47;;;;;;;27.85;36.21;101800.66;5008814;28;20124;-65
2022/07/29 10:41:26;;;;;;;6.38;3.25;;;;;;;27.67;36.31;101794.22;5008712;28;20287;-66
2022/07/29 10:43:52;;;;;;;9.32;3.40;;;;;;;26.99;37.59;101798.41;5007546;28;20030;-64
2022/07/29 10:46:18;;;;;;;11.10;3.38;;;;;;;27.46;36.47;101789.53;5006160;28;20402;-65
2022/07/29 10:49:08;;;;;;;2.42;2.20;;;;;;;28.04;35.96;101794.88;5008714;28;20092;-65
2022/07/29 10:51:57;;;;;;;7.00;3.33;;;;;;;28.59;35.42;101801.59;5008771;28;20398;-65
2022/07/29 10:54:47;;;;;;;13.43;3.10;;;;;;;28.83;34.50;101790.06;5008465;28;20116;-66
2022/07/29 10:57:14;;;;;;;6.65;2.90;;;;;;;29.37;33.73;101786.66;4984024;28;20507;-66
2022/07/29 10:59:41;;;;;;;6.15;2.80;;;;;;;29.30;33.92;101786.34;4973280;28;20499;-67
2022/07/29 11:02:39;;;;;;;4.40;2.75;;;;;;;28.58;34.00;101786.94;4978807;28;20034;-65
2022/07/29 11:05:05;;;;;;;8.73;3.17;;;;;;;28.65;34.16;101786.47;4986148;28;20026;-66
2022/07/29 11:07:34;;;;;;;5.22;2.72;;;;;;;29.04;32.70;101785.50;4988553;28;20046;-66
2022/07/29 11:10:12;;;;;;;4.28;2.50;;;;;;;28.06;33.64;101789.84;4993746;28;20042;-66
2022/07/29 11:12:37;;;;;;;11.20;2.92;;;;;;;28.52;33.68;101793.72;4971192;28;20199;-67
2022/07/29 11:15:06;;;;;;;9.02;2.83;;;;;;;29.04;32.48;101783.56;4980046;28;20141;-66
2022/07/29 11:17:51;;;;;;;5.35;2.50;;;;;;;29.17;32.39;101785.38;4988685;28;20103;-68
2022/07/29 11:20:44;;;;;;;5.50;2.55;;;;;;;29.48;32.36;101793.50;4988955;28;20054;-65
2022/07/29 11:23:31;;;;;;;5.95;2.45;;;;;;;29.23;32.49;101791.53;4989299;28;20042;-67
2022/07/29 11:26:24;;;;;;;6.30;2.40;;;;;;;29.69;31.99;101785.28;4997351;28;20434;-65
2022/07/29 11:28:50;;;;;;;5.55;2.80;;;;;;;29.49;31.30;101782.06;4989817;28;20035;-67
2022/07/29 11:31:33;;;;;;;6.82;2.80;;;;;;;29.31;30.85;101780.47;4976010;28;20034;-66
2022/07/29 11:34:17;;;;;;;7.30;2.33;;;;;;;29.33;31.42;101780.13;4988924;28;20462;-65
2022/07/29 11:39:34;;;;;;;3.15;2.47;;;;;;;29.41;32.59;101776.53;4988419;28;20048;-67